Time;durP1;ratioP1;P1;durP2;ratioP2;P2;SDS_P1;SDS_P2;PMS_P1;PMS_P2;Temp;Humidity;BMP_temperature;BMP_pressure;BME280_temperature;BME280_humidity;BME280_pressure;Samples;Min_cycle;Max_cycle;Signal;HPM_P1;HPM_P2
2021/12/07 12:23:50;;;;;;;18.33;4.20;;;;;;;;;;5122419;27;20354;-66
2021/12/07 12:26:20;;;;;;;17.40;3.85;;;;;;;;;;5108924;28;20031;-66
2021/12/07 12:28:47;;;;;;;8.77;2.17;;;;;;;;;;5103790;28;20021;-66
2021/12/07 12:31:14;;;;;;;14.40;3.03;;;;;;;;;;5104254;28;20024;-67
2021/12/07 12:33:47;;;;;;;18.35;2.83;;;;;;;;;;5111431;28;20486;-66
2021/12/07 12:36:14;;;;;;;19.92;2.67;;;;;;;;;;5116434;28;20031;-66
2021/12/07 12:38:46;;;;;;;16.95;2.90;;;;;;;;;;5112782;28;20027;-67
2021/12/07 12:41:13;;;;;;;8.35;1.90;;;;;;;;;;5115017;28;20076;-67
2021/12/07 12:43:47;;;;;;;15.00;2.83;;;;;;;;;;5112153;28;20028;-66
2021/12/07 12:46:15;;;;;;;10.80;2.42;;;;;;;;;;5115161;28;20060;-67
2021/12/07 12:48:49;;;;;;;18.70;2.47;;;;;;;;;;5115773;28;20036;-67
2021/12/07 12:51:16;;;;;;;15.13;3.95;;;;;;;;;;5116221;28;20023;-66
2021/12/07 12:53:42;;;;;;;14.35;3.88;;;;;;;;;;5108777;28;20076;-66
2021/12/07 12:56:10;;;;;;;13.48;3.00;;;;;;;;;;5112951;28;20031;-69
2021/12/07 12:58:42;;;;;;;8.65;2.72;;;;;;;;;;5108064;28;20032;-66
2021/12/07 13:01:08;;;;;;;15.88;3.10;;;;;;;;;;5111479;28;20039;-69
2021/12/07 13:03:43;;;;;;;13.65;2.75;;;;;;;;;;5114952;28;20452;-69
2021/12/07 13:06:13;;;;;;;15.70;2.53;;;;;;;;;;5112824;28;20023;-66
2021/12/07 13:08:57;;;;;;;8.33;1.60;;;;;;;;;;5105257;28;20038;-66
2021/12/07 13:11:40;;;;;;;11.88;2.58;;;;;;;;;;5105127;28;20280;-66
2021/12/07 13:14:33;;;;;;;13.55;2.50;;;;;;;;;;5110420;28;20080;-66
2021/12/07 13:17:16;;;;;;;16.20;2.60;;;;;;;;;;5105100;28;20055;-65
2021/12/07 13:20:02;;;;;;;12.90;2.67;;;;;;;;;;5108693;28;20749;-66
2021/12/07 13:22:47;;;;;;;12.45;2.80;;;;;;;;;;5100413;28;20097;-67
2021/12/07 13:25:25;;;;;;;15.27;2.42;;;;;;;;;;5103547;28;20102;-66
2021/12/07 13:28:17;;;;;;;15.52;3.00;;;;;;;;;;5108088;28;20020;-66
2021/12/07 13:30:43;;;;;;;11.65;2.22;;;;;;;;;;4982758;28;20480;-66
2021/12/07 13:33:13;;;;;;;16.00;2.97;;;;;;;;;;4984853;28;20030;-66
2021/12/07 13:35:40;;;;;;;20.80;3.38;;;;;;;;;;4970300;28;20121;-66
2021/12/07 13:38:25;;;;;;;14.00;2.78;;;;;;;;;;4968508;28;20027;-66
2021/12/07 13:40:54;;;;;;;17.48;2.67;;;;;;;;;;4964851;28;20042;-66
2021/12/07 13:43:33;;;;;;;12.05;2.80;;;;;;;;;;4968400;28;20042;-66
2021/12/07 13:46:13;;;;;;;17.02;3.05;;;;;;;;;;4968419;28;20023;-66
2021/12/07 13:48:40;;;;;;;11.87;3.03;;;;;;;;;;4970165;28;20039;-66
2021/12/07 13:51:06;;;;;;;8.82;2.40;;;;;;;;;;4970605;28;20414;-66
2021/12/07 13:53:33;;;;;;;16.52;3.05;;;;;;;;;;4968088;28;20038;-66
2021/12/07 13:55:59;;;;;;;16.38;2.85;;;;;;;;;;4969436;28;20026;-66
2021/12/07 13:58:26;;;;;;;16.63;3.35;;;;;;;;;;4969525;28;20026;-66
2021/12/07 14:00:52;;;;;;;18.00;3.90;;;;;;;;;;4969752;28;20043;-66
2021/12/07 14:03:19;;;;;;;17.25;3.35;;;;;;;;;;4967802;28;20046;-66
2021/12/07 14:05:46;;;;;;;15.73;2.80;;;;;;;;;;4968986;28;20034;-66
2021/12/07 14:08:14;;;;;;;15.45;3.78;;;;;;;;;;5071333;28;20036;-65
2021/12/07 14:10:45;;;;;;;16.58;3.53;;;;;;;;;;5097162;28;20092;-66
2021/12/07 14:13:11;;;;;;;18.33;3.67;;;;;;;;;;5101397;28;20028;-66
2021/12/07 14:15:42;;;;;;;16.17;2.90;;;;;;;;;;5100239;28;20034;-67
2021/12/07 14:18:10;;;;;;;13.00;2.97;;;;;;;;;;5097656;28;20066;-67
2021/12/07 14:20:50;;;;;;;16.83;3.70;;;;;;;;;;5099180;28;20399;-67
2021/12/07 14:23:36;;;;;;;12.27;2.80;;;;;;;;;;5098603;28;20042;-67
2021/12/07 14:26:08;;;;;;;11.75;2.60;;;;;;;;;;5016411;28;20269;-67
2021/12/07 14:28:37;;;;;;;16.35;2.97;;;;;;;;;;5018066;28;20052;-67
2021/12/07 14:31:09;;;;;;;15.13;3.72;;;;;;;;;;5017298;28;20030;-66
2021/12/07 14:33:36;;;;;;;17.67;3.28;;;;;;;;;;5016434;28;20026;-66
2021/12/07 14:36:03;;;;;;;16.77;3.28;;;;;;;;;;5018103;28;20034;-67
2021/12/07 14:38:33;;;;;;;12.88;3.10;;;;;;;;;;5018196;28;20547;-67
2021/12/07 14:41:07;;;;;;;18.83;3.20;;;;;;;;;;5016537;28;20030;-67
2021/12/07 14:43:33;;;;;;;16.75;3.08;;;;;;;;;;5014481;28;20556;-66
2021/12/07 14:46:00;;;;;;;20.10;2.97;;;;;;;;;;4999220;28;20401;-67
2021/12/07 14:48:26;;;;;;;13.88;2.65;;;;;;;;;;5020014;28;20102;-67
2021/12/07 14:50:53;;;;;;;13.18;2.97;;;;;;;;;;5016618;28;20121;-67
2021/12/07 14:53:32;;;;;;;10.55;2.20;;;;;;;;;;5014776;28;20041;-66
2021/12/07 14:55:58;;;;;;;12.73;2.30;;;;;;;;;;5016439;28;20037;-66
2021/12/07 14:58:34;;;;;;;8.48;2.38;;;;;;;;;;5018452;28;20184;-66
2021/12/07 15:01:02;;;;;;;9.85;2.70;;;;;;;;;;5016457;28;20120;-66
2021/12/07 15:03:37;;;;;;;9.50;2.67;;;;;;;;;;5065779;28;20040;-66
2021/12/07 15:06:04;;;;;;;10.73;2.63;;;;;;;;;;5099796;28;20051;-67
2021/12/07 15:08:31;;;;;;;9.65;2.55;;;;;;;;;;5099711;28;20032;-66
2021/12/07 15:11:00;;;;;;;11.15;2.05;;;;;;;;;;5097926;28;20028;-66
2021/12/07 15:13:26;;;;;;;9.25;1.92;;;;;;;;;;5100385;28;20079;-66
2021/12/07 15:15:58;;;;;;;15.35;2.95;;;;;;;;;;5097531;28;20071;-67
2021/12/07 15:18:32;;;;;;;11.40;2.58;;;;;;;;;;5095459;28;20525;-67
2021/12/07 15:20:58;;;;;;;8.75;2.45;;;;;;;;;;5099928;28;20067;-66
2021/12/07 15:23:25;;;;;;;9.82;2.00;;;;;;;;;;5096245;28;20123;-67
2021/12/07 15:25:53;;;;;;;10.93;2.85;;;;;;;;;;5094243;28;20031;-66
2021/12/07 15:28:19;;;;;;;9.45;2.45;;;;;;;;;;5095706;28;20023;-66
2021/12/07 15:30:46;;;;;;;8.27;1.88;;;;;;;;;;5098427;28;20156;-66
2021/12/07 15:33:12;;;;;;;7.57;1.98;;;;;;;;;;5103220;28;20027;-66
2021/12/07 15:35:40;;;;;;;8.50;2.50;;;;;;;;;;5098598;28;20024;-66
2021/12/07 15:38:07;;;;;;;10.15;2.28;;;;;;;;;;5098127;28;20405;-66
2021/12/07 15:40:33;;;;;;;8.65;1.90;;;;;;;;;;5097437;28;20065;-66
2021/12/07 15:42:59;;;;;;;11.80;2.05;;;;;;;;;;5100000;28;20099;-67
2021/12/07 15:45:25;;;;;;;11.75;2.10;;;;;;;;;;5102167;28;20118;-66
2021/12/07 15:47:52;;;;;;;12.32;1.98;;;;;;;;;;5100941;28;20452;-66
2021/12/07 15:50:20;;;;;;;13.52;2.47;;;;;;;;;;5096330;28;20012;-66
2021/12/07 15:52:51;;;;;;;13.13;2.22;;;;;;;;;;5098446;28;20031;-66
2021/12/07 15:55:25;;;;;;;13.38;2.05;;;;;;;;;;5095068;28;20107;-66
2021/12/07 15:57:55;;;;;;;9.40;2.05;;;;;;;;;;5096046;28;20039;-66
2021/12/07 16:00:30;;;;;;;8.23;1.88;;;;;;;;;;5102078;28;20036;-66
2021/12/07 16:03:01;;;;;;;7.35;2.40;;;;;;;;;;5101317;28;20055;-66
2021/12/07 16:05:33;;;;;;;6.90;1.70;;;;;;;;;;5095779;28;20039;-66
2021/12/07 16:08:07;;;;;;;8.82;1.77;;;;;;;;;;5099021;28;20028;-66
2021/12/07 16:10:35;;;;;;;9.75;2.42;;;;;;;;;;5096697;28;20028;-66
2021/12/07 16:13:09;;;;;;;10.45;2.08;;;;;;;;;;5097497;28;20035;-66
2021/12/07 16:15:36;;;;;;;9.20;1.70;;;;;;;;;;5100521;28;20552;-67
2021/12/07 16:18:02;;;;;;;9.48;2.00;;;;;;;;;;5101135;28;20343;-66
2021/12/07 16:20:28;;;;;;;11.77;2.75;;;;;;;;;;5095420;28;20395;-66
2021/12/07 16:22:55;;;;;;;12.63;2.20;;;;;;;;;;5099107;28;20563;-66
2021/12/07 16:25:21;;;;;;;12.07;2.38;;;;;;;;;;5090781;28;20034;-66
2021/12/07 16:27:47;;;;;;;7.53;1.77;;;;;;;;;;5095700;28;20092;-66
2021/12/07 16:30:14;;;;;;;9.05;2.00;;;;;;;;;;5099518;28;20031;-66
2021/12/07 16:32:40;;;;;;;13.63;2.45;;;;;;;;;;5091605;28;20511;-66
2021/12/07 16:35:08;;;;;;;9.93;2.90;;;;;;;;;;5096995;28;20030;-66
2021/12/07 16:37:34;;;;;;;12.98;2.45;;;;;;;;;;5096147;28;20119;-66
2021/12/07 16:40:00;;;;;;;12.02;2.65;;;;;;;;;;5090860;28;20016;-66
2021/12/07 16:42:26;;;;;;;10.10;2.45;;;;;;;;;;5087930;28;20182;-66
2021/12/07 16:44:53;;;;;;;16.17;2.72;;;;;;;;;;5093692;28;20020;-67
2021/12/07 16:47:19;;;;;;;12.32;2.80;;;;;;;;;;5096036;28;20076;-67
2021/12/07 16:49:46;;;;;;;17.15;2.83;;;;;;;;;;5097010;28;20510;-67
2021/12/07 16:52:13;;;;;;;12.70;2.70;;;;;;;;;;5092418;28;20069;-66
2021/12/07 16:54:39;;;;;;;15.55;3.50;;;;;;;;;;5097105;28;20484;-67
2021/12/07 16:57:11;;;;;;;15.88;3.10;;;;;;;;;;5092584;28;20107;-67
2021/12/07 16:59:39;;;;;;;11.05;2.70;;;;;;;;;;5096647;28;20076;-66
2021/12/07 17:02:05;;;;;;;13.65;2.78;;;;;;;;;;5097919;28;20125;-66
2021/12/07 17:04:32;;;;;;;15.45;2.92;;;;;;;;;;5094883;28;20024;-66
2021/12/07 17:06:58;;;;;;;14.10;2.80;;;;;;;;;;5093783;28;20444;-66
2021/12/07 17:09:27;;;;;;;16.88;3.28;;;;;;;;;;5103170;28;20020;-67
2021/12/07 17:11:53;;;;;;;15.18;2.97;;;;;;;;;;5102840;28;20127;-67
2021/12/07 17:14:19;;;;;;;10.90;2.58;;;;;;;;;;5093213;28;20513;-66
2021/12/07 17:16:46;;;;;;;17.52;3.15;;;;;;;;;;5091220;28;20085;-67
2021/12/07 17:19:12;;;;;;;12.27;3.00;;;;;;;;;;5086088;28;20024;-67
2021/12/07 17:21:38;;;;;;;17.08;2.55;;;;;;;;;;5091796;28;20048;-67
2021/12/07 17:24:04;;;;;;;14.00;2.65;;;;;;;;;;5102435;28;20019;-67
2021/12/07 17:26:31;;;;;;;12.38;2.50;;;;;;;;;;5096155;28;20061;-69
2021/12/07 17:28:57;;;;;;;12.10;2.85;;;;;;;;;;5071643;28;20088;-68
2021/12/07 17:31:23;;;;;;;13.60;2.88;;;;;;;;;;5068774;28;20028;-68
2021/12/07 17:33:50;;;;;;;10.40;3.20;;;;;;;;;;5091585;28;20024;-69
2021/12/07 17:36:18;;;;;;;17.83;3.35;;;;;;;;;;5093927;28;20082;-70
2021/12/07 17:38:48;;;;;;;19.08;3.08;;;;;;;;;;5098215;28;20051;-69
2021/12/07 17:41:16;;;;;;;15.85;3.00;;;;;;;;;;5097807;28;20085;-68
2021/12/07 17:43:42;;;;;;;15.35;3.08;;;;;;;;;;5096068;28;20506;-66
2021/12/07 17:46:09;;;;;;;16.38;3.83;;;;;;;;;;5094365;28;20016;-66
2021/12/07 17:48:37;;;;;;;16.38;3.08;;;;;;;;;;5095529;28;20044;-67
2021/12/07 17:51:03;;;;;;;14.95;2.45;;;;;;;;;;5091929;28;20024;-67
2021/12/07 17:53:29;;;;;;;17.50;3.17;;;;;;;;;;5089730;28;20032;-67
2021/12/07 17:55:59;;;;;;;16.33;2.88;;;;;;;;;;5085332;28;20527;-67
2021/12/07 17:58:25;;;;;;;14.93;2.75;;;;;;;;;;5090634;28;20039;-67
2021/12/07 18:00:53;;;;;;;16.13;3.65;;;;;;;;;;5089262;28;20069;-66
2021/12/07 18:03:20;;;;;;;16.33;2.65;;;;;;;;;;5091330;28;20023;-66
2021/12/07 18:05:46;;;;;;;11.35;2.67;;;;;;;;;;5094472;28;20028;-66
2021/12/07 18:08:12;;;;;;;15.88;2.75;;;;;;;;;;5090049;28;20040;-67
2021/12/07 18:10:39;;;;;;;15.23;2.75;;;;;;;;;;5094394;28;20031;-67
2021/12/07 18:13:06;;;;;;;12.48;2.67;;;;;;;;;;5095985;28;20036;-67
2021/12/07 18:15:32;;;;;;;13.15;3.40;;;;;;;;;;5094690;28;20035;-67
2021/12/07 18:17:59;;;;;;;14.60;3.33;;;;;;;;;;5087628;28;20076;-69
2021/12/07 18:20:27;;;;;;;10.65;2.72;;;;;;;;;;5095798;28;20027;-67
2021/12/07 18:22:56;;;;;;;22.67;3.05;;;;;;;;;;5095396;28;20052;-68
2021/12/07 18:25:23;;;;;;;21.27;3.60;;;;;;;;;;5094774;28;20043;-68
2021/12/07 18:27:49;;;;;;;18.17;3.35;;;;;;;;;;5101521;28;20085;-68
2021/12/07 18:30:25;;;;;;;17.17;3.78;;;;;;;;;;5100334;28;20399;-68
2021/12/07 18:32:51;;;;;;;19.45;3.55;;;;;;;;;;5096166;28;20039;-67
2021/12/07 18:35:18;;;;;;;20.35;3.83;;;;;;;;;;5092650;28;20029;-67
2021/12/07 18:37:44;;;;;;;19.00;4.30;;;;;;;;;;5103147;28;20024;-66
2021/12/07 18:40:11;;;;;;;15.15;4.22;;;;;;;;;;5093850;28;20111;-68
2021/12/07 18:42:37;;;;;;;18.42;3.78;;;;;;;;;;5099773;28;20508;-67
2021/12/07 18:45:05;;;;;;;17.08;4.05;;;;;;;;;;5069814;28;20036;-68
2021/12/07 18:47:31;;;;;;;17.00;3.83;;;;;;;;;;5072106;28;20032;-66
2021/12/07 18:49:57;;;;;;;22.95;3.40;;;;;;;;;;5088429;28;20391;-70
2021/12/07 18:52:23;;;;;;;15.32;3.40;;;;;;;;;;5087567;28;20040;-68
2021/12/07 18:54:49;;;;;;;15.45;3.92;;;;;;;;;;5087214;28;20419;-68
2021/12/07 18:57:17;;;;;;;18.77;3.47;;;;;;;;;;5094135;28;20023;-68
2021/12/07 18:59:43;;;;;;;16.25;3.17;;;;;;;;;;5087752;28;20541;-67
2021/12/07 19:02:11;;;;;;;16.45;3.10;;;;;;;;;;5098816;28;20077;-68
2021/12/07 19:04:37;;;;;;;17.38;4.28;;;;;;;;;;5097582;28;20027;-68
2021/12/07 19:07:04;;;;;;;15.80;3.50;;;;;;;;;;5091208;28;20028;-68
2021/12/07 19:09:30;;;;;;;13.15;3.60;;;;;;;;;;5089877;28;20032;-68
2021/12/07 19:11:56;;;;;;;18.42;3.67;;;;;;;;;;5093013;28;20019;-68
2021/12/07 19:14:22;;;;;;;16.55;3.33;;;;;;;;;;5094247;28;20027;-68
2021/12/07 19:16:48;;;;;;;13.43;3.17;;;;;;;;;;5098986;28;20020;-68
2021/12/07 19:19:15;;;;;;;15.77;3.83;;;;;;;;;;5097552;28;20479;-68
2021/12/07 19:21:41;;;;;;;10.50;3.35;;;;;;;;;;5074819;28;20570;-68
2021/12/07 19:24:07;;;;;;;21.40;4.03;;;;;;;;;;5084297;28;20031;-66
2021/12/07 19:26:34;;;;;;;19.20;4.68;;;;;;;;;;5067024;28;20034;-67
2021/12/07 19:29:00;;;;;;;16.08;4.20;;;;;;;;;;5091562;28;20059;-66
2021/12/07 19:31:26;;;;;;;22.80;4.35;;;;;;;;;;5085493;28;20453;-67
2021/12/07 19:33:54;;;;;;;21.42;3.90;;;;;;;;;;5094880;28;20035;-67
2021/12/07 19:36:24;;;;;;;21.58;3.90;;;;;;;;;;5099016;28;20081;-66
2021/12/07 19:38:50;;;;;;;19.08;3.88;;;;;;;;;;5095622;28;20122;-66
2021/12/07 19:41:17;;;;;;;23.73;4.65;;;;;;;;;;5092037;28;20405;-66
2021/12/07 19:43:44;;;;;;;19.35;3.90;;;;;;;;;;5087097;28;20032;-66
2021/12/07 19:46:11;;;;;;;25.33;3.85;;;;;;;;;;5086397;28;20024;-66
2021/12/07 19:48:37;;;;;;;15.25;4.05;;;;;;;;;;5087121;28;20082;-66
2021/12/07 19:51:07;;;;;;;19.63;4.00;;;;;;;;;;5090107;28;20385;-66
2021/12/07 19:53:35;;;;;;;18.07;3.53;;;;;;;;;;5088860;28;20802;-68
2021/12/07 19:56:03;;;;;;;20.65;4.38;;;;;;;;;;5089921;28;20054;-67
2021/12/07 19:58:30;;;;;;;58.10;26.80;;;;;;;;;;5088690;28;20035;-66
2021/12/07 20:00:59;;;;;;;34.55;10.77;;;;;;;;;;5091716;28;20099;-66
2021/12/07 20:03:25;;;;;;;19.92;6.03;;;;;;;;;;5089229;28;20026;-66
2021/12/07 20:05:52;;;;;;;17.25;5.72;;;;;;;;;;5091189;28;20475;-66
2021/12/07 20:08:19;;;;;;;35.13;17.92;;;;;;;;;;5083299;28;20032;-66
2021/12/07 20:10:46;;;;;;;23.00;7.22;;;;;;;;;;5083283;28;20024;-66
2021/12/07 20:13:17;;;;;;;23.15;6.65;;;;;;;;;;5086495;28;20028;-66
2021/12/07 20:15:45;;;;;;;19.77;6.20;;;;;;;;;;5095798;28;20024;-66
2021/12/07 20:18:11;;;;;;;20.45;6.43;;;;;;;;;;5096942;28;20034;-66
2021/12/07 20:20:37;;;;;;;27.23;6.18;;;;;;;;;;5095310;28;20407;-66
2021/12/07 20:23:04;;;;;;;21.20;6.35;;;;;;;;;;5096646;28;20044;-66
2021/12/07 20:25:30;;;;;;;20.52;5.80;;;;;;;;;;5098377;28;20032;-66
2021/12/07 20:27:56;;;;;;;22.90;6.45;;;;;;;;;;5096910;28;20110;-66
2021/12/07 20:30:23;;;;;;;32.55;6.72;;;;;;;;;;5091598;28;20038;-67
2021/12/07 20:32:49;;;;;;;23.40;6.80;;;;;;;;;;5096279;28;20120;-67
2021/12/07 20:35:15;;;;;;;57.72;18.95;;;;;;;;;;5096277;28;20395;-66
2021/12/07 20:37:41;;;;;;;44.53;13.20;;;;;;;;;;5095400;28;20020;-65
2021/12/07 20:40:09;;;;;;;37.00;11.82;;;;;;;;;;5096753;28;20026;-66
2021/12/07 20:42:35;;;;;;;34.08;8.00;;;;;;;;;;5092153;28;20457;-65
2021/12/07 20:45:03;;;;;;;16.58;6.90;;;;;;;;;;5093852;28;20016;-65
2021/12/07 20:47:29;;;;;;;21.65;6.38;;;;;;;;;;5096886;28;20510;-65
2021/12/07 20:49:55;;;;;;;21.55;6.65;;;;;;;;;;5094288;28;20027;-65
2021/12/07 20:52:22;;;;;;;20.70;5.95;;;;;;;;;;5097331;28;20052;-65
2021/12/07 20:54:49;;;;;;;18.38;5.03;;;;;;;;;;5100996;28;20039;-65
2021/12/07 20:57:16;;;;;;;11.25;5.20;;;;;;;;;;5093768;28;20058;-65
2021/12/07 20:59:42;;;;;;;21.27;6.45;;;;;;;;;;5092986;28;20035;-65
2021/12/07 21:02:08;;;;;;;19.38;6.03;;;;;;;;;;5095799;28;20514;-65
2021/12/07 21:04:35;;;;;;;18.52;5.38;;;;;;;;;;5099081;28;20548;-65
2021/12/07 21:07:01;;;;;;;15.60;5.35;;;;;;;;;;5085843;28;20062;-64
2021/12/07 21:09:27;;;;;;;17.73;4.80;;;;;;;;;;5095684;28;20517;-64
2021/12/07 21:11:53;;;;;;;14.90;5.43;;;;;;;;;;5080999;28;20551;-64
2021/12/07 21:14:23;;;;;;;19.08;5.00;;;;;;;;;;5095739;28;20111;-65
2021/12/07 21:16:50;;;;;;;11.82;3.97;;;;;;;;;;5101660;28;20020;-64
2021/12/07 21:19:17;;;;;;;16.55;6.10;;;;;;;;;;5098606;28;20141;-64
2021/12/07 21:21:44;;;;;;;20.20;6.53;;;;;;;;;;5095226;28;20047;-64
2021/12/07 21:24:10;;;;;;;17.98;7.00;;;;;;;;;;5091255;28;20407;-64
2021/12/07 21:26:39;;;;;;;17.17;5.88;;;;;;;;;;5093969;28;20099;-64
2021/12/07 21:29:07;;;;;;;13.70;5.05;;;;;;;;;;5073024;28;20024;-64
2021/12/07 21:31:34;;;;;;;11.75;5.32;;;;;;;;;;5090896;28;20021;-64
2021/12/07 21:34:04;;;;;;;11.55;4.72;;;;;;;;;;5090054;28;20458;-64
2021/12/07 21:36:30;;;;;;;17.77;4.80;;;;;;;;;;5086751;28;20317;-64
2021/12/07 21:38:56;;;;;;;15.57;4.00;;;;;;;;;;5087251;28;20390;-63
2021/12/07 21:41:22;;;;;;;12.52;3.25;;;;;;;;;;5089938;28;20024;-64
2021/12/07 21:43:49;;;;;;;13.48;4.43;;;;;;;;;;5094956;28;20016;-64
2021/12/07 21:46:15;;;;;;;10.20;3.97;;;;;;;;;;5093000;28;20394;-64
2021/12/07 21:48:41;;;;;;;15.13;3.95;;;;;;;;;;5089541;28;20031;-64
2021/12/07 21:51:08;;;;;;;10.52;3.33;;;;;;;;;;5096427;28;20020;-64
2021/12/07 21:53:43;;;;;;;11.40;3.83;;;;;;;;;;5094961;28;20448;-64
2021/12/07 21:56:13;;;;;;;12.65;3.65;;;;;;;;;;5093122;28;20035;-64
2021/12/07 21:58:41;;;;;;;7.60;3.05;;;;;;;;;;5096793;28;20487;-64
2021/12/07 22:01:09;;;;;;;13.85;4.00;;;;;;;;;;5075269;28;20086;-64
2021/12/07 22:03:35;;;;;;;11.32;3.05;;;;;;;;;;5097979;28;20061;-65
2021/12/07 22:06:01;;;;;;;16.30;4.13;;;;;;;;;;5099152;28;20031;-64
2021/12/07 22:08:27;;;;;;;11.02;3.10;;;;;;;;;;5092085;28;20506;-65
2021/12/07 22:10:54;;;;;;;10.80;3.30;;;;;;;;;;5094676;28;20020;-65
2021/12/07 22:13:23;;;;;;;11.10;2.88;;;;;;;;;;5097617;28;20436;-65
2021/12/07 22:15:50;;;;;;;9.73;2.67;;;;;;;;;;5095401;28;20055;-64
2021/12/07 22:18:16;;;;;;;8.13;2.85;;;;;;;;;;5095209;28;20027;-65
2021/12/07 22:20:43;;;;;;;13.45;3.38;;;;;;;;;;5092547;28;20100;-64
2021/12/07 22:23:10;;;;;;;10.80;3.05;;;;;;;;;;5091226;28;20036;-64
2021/12/07 22:25:43;;;;;;;9.75;3.35;;;;;;;;;;5090679;28;20024;-65
2021/12/07 22:28:23;;;;;;;7.75;2.60;;;;;;;;;;5087031;28;20028;-64
2021/12/07 22:30:52;;;;;;;11.10;2.95;;;;;;;;;;5091880;28;20028;-65
2021/12/07 22:33:19;;;;;;;10.52;3.17;;;;;;;;;;5093112;28;20035;-65
2021/12/07 22:35:47;;;;;;;10.18;3.67;;;;;;;;;;5079266;28;20343;-65
2021/12/07 22:38:14;;;;;;;8.90;2.97;;;;;;;;;;5097810;28;20038;-65
2021/12/07 22:40:41;;;;;;;6.60;2.70;;;;;;;;;;5090266;28;20020;-64
2021/12/07 22:43:08;;;;;;;8.82;2.88;;;;;;;;;;5070006;28;20044;-64
2021/12/07 22:45:40;;;;;;;13.35;3.65;;;;;;;;;;5086974;28;20024;-64
2021/12/07 22:48:14;;;;;;;13.48;2.85;;;;;;;;;;5090084;28;20024;-64
2021/12/07 22:50:41;;;;;;;7.97;2.88;;;;;;;;;;5091020;28;20158;-64
2021/12/07 22:53:08;;;;;;;9.13;2.88;;;;;;;;;;5097296;28;20406;-64
2021/12/07 22:55:35;;;;;;;7.20;2.40;;;;;;;;;;5102388;28;20034;-64
2021/12/07 22:58:01;;;;;;;10.18;3.15;;;;;;;;;;5096241;28;20036;-64
2021/12/07 23:00:33;;;;;;;7.97;3.13;;;;;;;;;;5098534;28;20161;-64
2021/12/07 23:03:02;;;;;;;6.80;3.00;;;;;;;;;;5095415;28;20028;-65
2021/12/07 23:05:30;;;;;;;7.18;3.10;;;;;;;;;;5096090;28;20056;-65
2021/12/07 23:07:58;;;;;;;11.57;4.15;;;;;;;;;;5100575;28;20115;-64
2021/12/07 23:10:25;;;;;;;13.63;3.42;;;;;;;;;;5099538;28;20066;-64
2021/12/07 23:12:59;;;;;;;10.65;4.18;;;;;;;;;;5096229;28;20084;-65
2021/12/07 23:15:32;;;;;;;9.38;4.32;;;;;;;;;;5095460;28;20024;-64
2021/12/07 23:18:09;;;;;;;9.75;3.28;;;;;;;;;;5093131;28;20039;-65
2021/12/07 23:20:36;;;;;;;13.00;4.03;;;;;;;;;;5093867;28;20440;-64
2021/12/07 23:23:02;;;;;;;14.10;4.45;;;;;;;;;;5098700;28;20040;-64
2021/12/07 23:25:29;;;;;;;12.65;4.00;;;;;;;;;;5095507;28;20023;-64
2021/12/07 23:27:59;;;;;;;13.40;3.88;;;;;;;;;;5095852;28;20089;-65
2021/12/07 23:30:25;;;;;;;9.05;3.60;;;;;;;;;;5097086;28;20079;-65
2021/12/07 23:32:51;;;;;;;10.35;4.10;;;;;;;;;;5092165;28;20031;-64
2021/12/07 23:35:17;;;;;;;12.30;3.80;;;;;;;;;;5094227;28;20039;-64
2021/12/07 23:37:44;;;;;;;10.13;3.40;;;;;;;;;;5087012;28;20137;-65
2021/12/07 23:40:11;;;;;;;11.07;3.85;;;;;;;;;;5096447;28;20115;-64
2021/12/07 23:42:38;;;;;;;12.02;3.80;;;;;;;;;;5098031;28;20024;-64
2021/12/07 23:45:04;;;;;;;10.00;3.60;;;;;;;;;;5095053;28;20482;-64
2021/12/07 23:47:31;;;;;;;12.40;3.50;;;;;;;;;;5096518;28;20491;-64
2021/12/07 23:49:59;;;;;;;9.32;3.28;;;;;;;;;;5096174;28;20130;-65
2021/12/07 23:52:32;;;;;;;6.57;2.75;;;;;;;;;;5093091;28;20040;-64
2021/12/07 23:54:58;;;;;;;6.70;2.80;;;;;;;;;;5088162;28;20026;-65
2021/12/07 23:57:24;;;;;;;8.20;2.50;;;;;;;;;;5093009;28;20011;-65
